sensor_id;sensor_type;location;lat;lon;timestamp;P1;durP1;ratioP1;P2;durP2;ratioP2
53293;SDS011;39181;53.440;5.644;2023-07-13T00:01:46;5.85;;;0.95;;
53293;SDS011;39181;53.440;5.644;2023-07-13T00:04:14;5.75;;;0.80;;
53293;SDS011;39181;53.440;5.644;2023-07-13T00:06:45;5.22;;;0.73;;
53293;SDS011;39181;53.440;5.644;2023-07-13T00:09:12;1.90;;;0.70;;
53293;SDS011;39181;53.440;5.644;2023-07-13T00:11:39;5.15;;;0.90;;
53293;SDS011;39181;53.440;5.644;2023-07-13T00:14:06;3.78;;;0.63;;
53293;SDS011;39181;53.440;5.644;2023-07-13T00:16:32;3.65;;;0.50;;
53293;SDS011;39181;53.440;5.644;2023-07-13T00:18:59;5.63;;;1.20;;
53293;SDS011;39181;53.440;5.644;2023-07-13T00:21:25;3.67;;;0.60;;
53293;SDS011;39181;53.440;5.644;2023-07-13T00:23:51;3.20;;;0.80;;
53293;SDS011;39181;53.440;5.644;2023-07-13T00:26:17;6.43;;;0.88;;
53293;SDS011;39181;53.440;5.644;2023-07-13T00:28:43;8.68;;;0.77;;
53293;SDS011;39181;53.440;5.644;2023-07-13T00:31:09;3.75;;;0.50;;
53293;SDS011;39181;53.440;5.644;2023-07-13T00:33:36;4.80;;;0.70;;
53293;SDS011;39181;53.440;5.644;2023-07-13T00:36:02;3.25;;;0.77;;
53293;SDS011;39181;53.440;5.644;2023-07-13T00:38:28;8.15;;;0.70;;
53293;SDS011;39181;53.440;5.644;2023-07-13T00:40:54;4.22;;;0.70;;
53293;SDS011;39181;53.440;5.644;2023-07-13T00:43:21;5.80;;;0.70;;
53293;SDS011;39181;53.440;5.644;2023-07-13T00:48:18;4.28;;;0.98;;
53293;SDS011;39181;53.440;5.644;2023-07-13T00:50:48;4.60;;;0.88;;
53293;SDS011;39181;53.440;5.644;2023-07-13T00:53:17;6.50;;;1.00;;
53293;SDS011;39181;53.440;5.644;2023-07-13T00:55:44;5.60;;;0.82;;
53293;SDS011;39181;53.440;5.644;2023-07-13T00:58:10;13.25;;;1.58;;
53293;SDS011;39181;53.440;5.644;2023-07-13T01:00:36;3.55;;;0.80;;
53293;SDS011;39181;53.440;5.644;2023-07-13T01:03:03;3.60;;;0.85;;
53293;SDS011;39181;53.440;5.644;2023-07-13T01:05:30;3.15;;;0.88;;
53293;SDS011;39181;53.440;5.644;2023-07-13T01:07:58;4.68;;;1.10;;
53293;SDS011;39181;53.440;5.644;2023-07-13T01:10:25;5.90;;;0.95;;
53293;SDS011;39181;53.440;5.644;2023-07-13T01:12:52;6.63;;;1.30;;
53293;SDS011;39181;53.440;5.644;2023-07-13T01:15:34;6.18;;;1.10;;
53293;SDS011;39181;53.440;5.644;2023-07-13T01:18:07;5.45;;;0.95;;
53293;SDS011;39181;53.440;5.644;2023-07-13T01:20:36;6.78;;;1.90;;
53293;SDS011;39181;53.440;5.644;2023-07-13T01:23:11;6.28;;;1.00;;
53293;SDS011;39181;53.440;5.644;2023-07-13T01:25:38;6.97;;;0.90;;
53293;SDS011;39181;53.440;5.644;2023-07-13T01:28:05;7.03;;;1.15;;
53293;SDS011;39181;53.440;5.644;2023-07-13T01:30:33;9.00;;;1.48;;
53293;SDS011;39181;53.440;5.644;2023-07-13T01:33:00;8.48;;;1.20;;
53293;SDS011;39181;53.440;5.644;2023-07-13T01:35:25;11.13;;;1.60;;
53293;SDS011;39181;53.440;5.644;2023-07-13T01:37:53;5.75;;;0.93;;
53293;SDS011;39181;53.440;5.644;2023-07-13T01:40:19;5.88;;;1.27;;
53293;SDS011;39181;53.440;5.644;2023-07-13T01:42:45;8.02;;;1.27;;
53293;SDS011;39181;53.440;5.644;2023-07-13T01:45:11;9.20;;;1.35;;
53293;SDS011;39181;53.440;5.644;2023-07-13T01:47:37;6.80;;;1.38;;
53293;SDS011;39181;53.440;5.644;2023-07-13T01:50:02;9.73;;;1.27;;
53293;SDS011;39181;53.440;5.644;2023-07-13T01:52:28;6.68;;;1.25;;
53293;SDS011;39181;53.440;5.644;2023-07-13T01:54:54;11.30;;;2.03;;
53293;SDS011;39181;53.440;5.644;2023-07-13T01:57:19;7.72;;;1.33;;
53293;SDS011;39181;53.440;5.644;2023-07-13T01:59:45;5.78;;;1.50;;
53293;SDS011;39181;53.440;5.644;2023-07-13T02:02:10;7.38;;;1.77;;
53293;SDS011;39181;53.440;5.644;2023-07-13T02:04:36;10.15;;;1.55;;
53293;SDS011;39181;53.440;5.644;2023-07-13T02:07:02;10.82;;;2.20;;
53293;SDS011;39181;53.440;5.644;2023-07-13T02:09:27;5.70;;;1.27;;
53293;SDS011;39181;53.440;5.644;2023-07-13T02:11:53;11.07;;;1.60;;
53293;SDS011;39181;53.440;5.644;2023-07-13T02:14:18;12.48;;;2.05;;
53293;SDS011;39181;53.440;5.644;2023-07-13T02:16:44;9.40;;;1.42;;
53293;SDS011;39181;53.440;5.644;2023-07-13T02:19:09;8.20;;;1.58;;
53293;SDS011;39181;53.440;5.644;2023-07-13T02:21:35;11.63;;;2.08;;
53293;SDS011;39181;53.440;5.644;2023-07-13T02:24:00;11.15;;;1.73;;
53293;SDS011;39181;53.440;5.644;2023-07-13T02:26:26;9.70;;;1.90;;
53293;SDS011;39181;53.440;5.644;2023-07-13T02:28:52;9.15;;;1.65;;
53293;SDS011;39181;53.440;5.644;2023-07-13T02:31:18;11.00;;;2.08;;
53293;SDS011;39181;53.440;5.644;2023-07-13T02:33:44;8.63;;;1.50;;
53293;SDS011;39181;53.440;5.644;2023-07-13T02:36:10;11.07;;;1.52;;
53293;SDS011;39181;53.440;5.644;2023-07-13T02:38:35;9.38;;;1.85;;
53293;SDS011;39181;53.440;5.644;2023-07-13T02:41:05;11.20;;;1.98;;
53293;SDS011;39181;53.440;5.644;2023-07-13T02:43:32;10.93;;;1.45;;
53293;SDS011;39181;53.440;5.644;2023-07-13T02:45:59;7.60;;;1.80;;
53293;SDS011;39181;53.440;5.644;2023-07-13T02:48:34;8.68;;;1.80;;
53293;SDS011;39181;53.440;5.644;2023-07-13T02:51:00;10.65;;;1.67;;
53293;SDS011;39181;53.440;5.644;2023-07-13T02:53:26;14.77;;;1.80;;
53293;SDS011;39181;53.440;5.644;2023-07-13T02:55:52;8.98;;;1.70;;
53293;SDS011;39181;53.440;5.644;2023-07-13T02:58:17;10.25;;;1.48;;
53293;SDS011;39181;53.440;5.644;2023-07-13T03:00:43;10.75;;;1.67;;
53293;SDS011;39181;53.440;5.644;2023-07-13T03:03:11;7.10;;;1.58;;
53293;SDS011;39181;53.440;5.644;2023-07-13T03:05:40;7.78;;;1.67;;
53293;SDS011;39181;53.440;5.644;2023-07-13T03:08:07;13.65;;;2.08;;
53293;SDS011;39181;53.440;5.644;2023-07-13T03:10:37;11.45;;;2.05;;
53293;SDS011;39181;53.440;5.644;2023-07-13T03:13:05;10.25;;;2.00;;
53293;SDS011;39181;53.440;5.644;2023-07-13T03:15:30;5.82;;;1.63;;
53293;SDS011;39181;53.440;5.644;2023-07-13T03:17:56;11.88;;;1.90;;
53293;SDS011;39181;53.440;5.644;2023-07-13T03:20:22;8.02;;;2.03;;
53293;SDS011;39181;53.440;5.644;2023-07-13T03:22:47;7.22;;;1.77;;
53293;SDS011;39181;53.440;5.644;2023-07-13T03:25:13;7.65;;;1.70;;
53293;SDS011;39181;53.440;5.644;2023-07-13T03:27:38;12.70;;;2.28;;
53293;SDS011;39181;53.440;5.644;2023-07-13T03:30:04;11.48;;;1.92;;
53293;SDS011;39181;53.440;5.644;2023-07-13T03:32:31;14.65;;;2.25;;
53293;SDS011;39181;53.440;5.644;2023-07-13T03:34:57;9.32;;;2.30;;
53293;SDS011;39181;53.440;5.644;2023-07-13T03:37:23;11.52;;;1.88;;
53293;SDS011;39181;53.440;5.644;2023-07-13T03:39:48;6.72;;;1.83;;
53293;SDS011;39181;53.440;5.644;2023-07-13T03:42:14;7.80;;;1.70;;
53293;SDS011;39181;53.440;5.644;2023-07-13T03:44:40;7.80;;;2.08;;
53293;SDS011;39181;53.440;5.644;2023-07-13T03:47:07;9.52;;;2.03;;
53293;SDS011;39181;53.440;5.644;2023-07-13T03:49:34;11.57;;;1.75;;
53293;SDS011;39181;53.440;5.644;2023-07-13T03:52:00;9.80;;;2.17;;
53293;SDS011;39181;53.440;5.644;2023-07-13T03:54:26;8.48;;;1.90;;
53293;SDS011;39181;53.440;5.644;2023-07-13T03:56:51;15.63;;;2.20;;
53293;SDS011;39181;53.440;5.644;2023-07-13T03:59:17;9.27;;;1.80;;
53293;SDS011;39181;53.440;5.644;2023-07-13T04:01:43;8.27;;;1.80;;
53293;SDS011;39181;53.440;5.644;2023-07-13T04:04:09;8.93;;;2.08;;
53293;SDS011;39181;53.440;5.644;2023-07-13T04:06:34;12.95;;;2.38;;
53293;SDS011;39181;53.440;5.644;2023-07-13T04:09:00;15.00;;;2.25;;
53293;SDS011;39181;53.440;5.644;2023-07-13T04:11:31;10.88;;;2.28;;
53293;SDS011;39181;53.440;5.644;2023-07-13T04:13:57;11.82;;;1.83;;
53293;SDS011;39181;53.440;5.644;2023-07-13T04:16:23;10.35;;;2.08;;
53293;SDS011;39181;53.440;5.644;2023-07-13T04:18:49;10.50;;;1.70;;
53293;SDS011;39181;53.440;5.644;2023-07-13T04:21:19;10.15;;;1.63;;
53293;SDS011;39181;53.440;5.644;2023-07-13T04:23:45;8.23;;;1.58;;
53293;SDS011;39181;53.440;5.644;2023-07-13T04:26:11;6.05;;;1.80;;
53293;SDS011;39181;53.440;5.644;2023-07-13T04:28:36;6.53;;;1.75;;
53293;SDS011;39181;53.440;5.644;2023-07-13T04:31:02;6.07;;;1.42;;
53293;SDS011;39181;53.440;5.644;2023-07-13T04:33:28;9.95;;;1.75;;
53293;SDS011;39181;53.440;5.644;2023-07-13T04:35:54;6.70;;;1.35;;
53293;SDS011;39181;53.440;5.644;2023-07-13T04:38:25;8.18;;;1.70;;
53293;SDS011;39181;53.440;5.644;2023-07-13T04:40:54;6.38;;;1.55;;
53293;SDS011;39181;53.440;5.644;2023-07-13T04:43:21;5.90;;;1.42;;
53293;SDS011;39181;53.440;5.644;2023-07-13T04:45:46;6.82;;;1.20;;
53293;SDS011;39181;53.440;5.644;2023-07-13T04:48:12;8.82;;;1.10;;
53293;SDS011;39181;53.440;5.644;2023-07-13T04:50:38;3.88;;;1.20;;
53293;SDS011;39181;53.440;5.644;2023-07-13T04:53:04;6.85;;;1.08;;
53293;SDS011;39181;53.440;5.644;2023-07-13T04:55:30;6.80;;;1.30;;
53293;SDS011;39181;53.440;5.644;2023-07-13T04:57:56;8.48;;;0.90;;
53293;SDS011;39181;53.440;5.644;2023-07-13T05:00:23;11.02;;;1.50;;
53293;SDS011;39181;53.440;5.644;2023-07-13T05:02:49;3.88;;;1.25;;
53293;SDS011;39181;53.440;5.644;2023-07-13T05:05:16;5.53;;;1.38;;
53293;SDS011;39181;53.440;5.644;2023-07-13T05:07:42;5.80;;;1.27;;
53293;SDS011;39181;53.440;5.644;2023-07-13T05:10:08;7.35;;;1.20;;
53293;SDS011;39181;53.440;5.644;2023-07-13T05:12:34;8.27;;;1.65;;
53293;SDS011;39181;53.440;5.644;2023-07-13T05:14:59;4.60;;;1.30;;
53293;SDS011;39181;53.440;5.644;2023-07-13T05:17:25;4.97;;;1.27;;
53293;SDS011;39181;53.440;5.644;2023-07-13T05:19:51;6.00;;;1.25;;
53293;SDS011;39181;53.440;5.644;2023-07-13T05:22:17;8.35;;;1.15;;
53293;SDS011;39181;53.440;5.644;2023-07-13T05:24:42;6.88;;;1.05;;
53293;SDS011;39181;53.440;5.644;2023-07-13T05:27:08;4.05;;;0.80;;
53293;SDS011;39181;53.440;5.644;2023-07-13T05:29:33;4.57;;;1.30;;
53293;SDS011;39181;53.440;5.644;2023-07-13T05:31:59;4.82;;;1.20;;
53293;SDS011;39181;53.440;5.644;2023-07-13T05:34:25;3.63;;;0.98;;
53293;SDS011;39181;53.440;5.644;2023-07-13T05:36:51;6.07;;;1.27;;
53293;SDS011;39181;53.440;5.644;2023-07-13T05:39:17;4.57;;;1.10;;
53293;SDS011;39181;53.440;5.644;2023-07-13T05:41:43;4.95;;;0.93;;
53293;SDS011;39181;53.440;5.644;2023-07-13T05:44:09;4.32;;;1.35;;
53293;SDS011;39181;53.440;5.644;2023-07-13T05:46:35;5.63;;;1.10;;
53293;SDS011;39181;53.440;5.644;2023-07-13T05:49:01;5.95;;;1.05;;
53293;SDS011;39181;53.440;5.644;2023-07-13T05:51:26;2.72;;;0.80;;
53293;SDS011;39181;53.440;5.644;2023-07-13T05:53:52;5.40;;;1.40;;
53293;SDS011;39181;53.440;5.644;2023-07-13T05:56:18;5.45;;;1.05;;
53293;SDS011;39181;53.440;5.644;2023-07-13T05:58:43;2.13;;;0.98;;
53293;SDS011;39181;53.440;5.644;2023-07-13T06:01:10;6.30;;;1.10;;
53293;SDS011;39181;53.440;5.644;2023-07-13T06:03:37;7.47;;;1.52;;
53293;SDS011;39181;53.440;5.644;2023-07-13T06:06:06;4.88;;;1.13;;
53293;SDS011;39181;53.440;5.644;2023-07-13T06:08:33;7.32;;;1.15;;
53293;SDS011;39181;53.440;5.644;2023-07-13T06:11:03;6.90;;;1.30;;
53293;SDS011;39181;53.440;5.644;2023-07-13T06:15:58;6.78;;;1.30;;
53293;SDS011;39181;53.440;5.644;2023-07-13T06:18:24;8.20;;;1.27;;
53293;SDS011;39181;53.440;5.644;2023-07-13T06:20:50;5.75;;;1.42;;
53293;SDS011;39181;53.440;5.644;2023-07-13T06:23:15;9.75;;;1.58;;
53293;SDS011;39181;53.440;5.644;2023-07-13T06:25:41;7.50;;;1.50;;
53293;SDS011;39181;53.440;5.644;2023-07-13T06:28:08;7.00;;;1.30;;
53293;SDS011;39181;53.440;5.644;2023-07-13T06:30:34;5.25;;;1.10;;
53293;SDS011;39181;53.440;5.644;2023-07-13T06:32:59;7.15;;;0.98;;
53293;SDS011;39181;53.440;5.644;2023-07-13T06:35:25;6.50;;;1.30;;
53293;SDS011;39181;53.440;5.644;2023-07-13T06:37:50;4.07;;;1.05;;
53293;SDS011;39181;53.440;5.644;2023-07-13T06:40:16;4.72;;;0.88;;
53293;SDS011;39181;53.440;5.644;2023-07-13T06:42:42;3.42;;;0.93;;
53293;SDS011;39181;53.440;5.644;2023-07-13T06:45:07;2.25;;;0.70;;
53293;SDS011;39181;53.440;5.644;2023-07-13T06:47:33;4.60;;;1.00;;
53293;SDS011;39181;53.440;5.644;2023-07-13T06:49:59;3.47;;;1.00;;
53293;SDS011;39181;53.440;5.644;2023-07-13T06:52:25;9.02;;;1.00;;
53293;SDS011;39181;53.440;5.644;2023-07-13T06:54:51;5.28;;;1.20;;
53293;SDS011;39181;53.440;5.644;2023-07-13T06:57:16;6.35;;;0.95;;
53293;SDS011;39181;53.440;5.644;2023-07-13T06:59:42;3.40;;;0.77;;
53293;SDS011;39181;53.440;5.644;2023-07-13T07:02:08;2.20;;;0.80;;
53293;SDS011;39181;53.440;5.644;2023-07-13T07:04:35;4.68;;;0.95;;
53293;SDS011;39181;53.440;5.644;2023-07-13T07:07:01;2.95;;;0.77;;
53293;SDS011;39181;53.440;5.644;2023-07-13T07:09:27;3.20;;;1.10;;
53293;SDS011;39181;53.440;5.644;2023-07-13T07:11:54;2.35;;;0.73;;
53293;SDS011;39181;53.440;5.644;2023-07-13T07:14:20;4.53;;;0.90;;
53293;SDS011;39181;53.440;5.644;2023-07-13T07:16:45;2.90;;;1.15;;
53293;SDS011;39181;53.440;5.644;2023-07-13T07:19:11;2.45;;;0.80;;
53293;SDS011;39181;53.440;5.644;2023-07-13T07:21:36;4.13;;;1.00;;
53293;SDS011;39181;53.440;5.644;2023-07-13T07:24:02;6.25;;;0.90;;
53293;SDS011;39181;53.440;5.644;2023-07-13T07:26:29;4.75;;;0.95;;
53293;SDS011;39181;53.440;5.644;2023-07-13T07:28:55;5.30;;;0.70;;
53293;SDS011;39181;53.440;5.644;2023-07-13T07:31:21;3.03;;;0.90;;
53293;SDS011;39181;53.440;5.644;2023-07-13T07:33:46;4.03;;;0.82;;
53293;SDS011;39181;53.440;5.644;2023-07-13T07:36:12;2.08;;;0.70;;
53293;SDS011;39181;53.440;5.644;2023-07-13T07:38:37;5.32;;;1.35;;
53293;SDS011;39181;53.440;5.644;2023-07-13T07:41:04;3.60;;;0.95;;
53293;SDS011;39181;53.440;5.644;2023-07-13T07:43:33;5.40;;;1.15;;
53293;SDS011;39181;53.440;5.644;2023-07-13T07:45:58;5.40;;;1.17;;
53293;SDS011;39181;53.440;5.644;2023-07-13T07:48:24;3.15;;;0.80;;
53293;SDS011;39181;53.440;5.644;2023-07-13T07:50:50;5.63;;;1.00;;
53293;SDS011;39181;53.440;5.644;2023-07-13T07:53:15;4.57;;;1.27;;
53293;SDS011;39181;53.440;5.644;2023-07-13T07:55:41;4.85;;;0.95;;
53293;SDS011;39181;53.440;5.644;2023-07-13T07:58:07;9.18;;;1.10;;
53293;SDS011;39181;53.440;5.644;2023-07-13T08:00:32;5.63;;;1.00;;
53293;SDS011;39181;53.440;5.644;2023-07-13T08:02:58;6.35;;;1.30;;
53293;SDS011;39181;53.440;5.644;2023-07-13T08:05:24;4.22;;;0.90;;
53293;SDS011;39181;53.440;5.644;2023-07-13T08:07:50;6.03;;;1.10;;
53293;SDS011;39181;53.440;5.644;2023-07-13T08:10:16;4.20;;;1.27;;
53293;SDS011;39181;53.440;5.644;2023-07-13T08:12:42;5.75;;;1.05;;
53293;SDS011;39181;53.440;5.644;2023-07-13T08:15:12;5.88;;;1.27;;
53293;SDS011;39181;53.440;5.644;2023-07-13T08:17:39;3.75;;;0.98;;
53293;SDS011;39181;53.440;5.644;2023-07-13T08:20:04;4.97;;;1.58;;
53293;SDS011;39181;53.440;5.644;2023-07-13T08:22:30;5.78;;;1.52;;
53293;SDS011;39181;53.440;5.644;2023-07-13T08:24:56;3.58;;;0.90;;
53293;SDS011;39181;53.440;5.644;2023-07-13T08:27:22;5.22;;;1.10;;
53293;SDS011;39181;53.440;5.644;2023-07-13T08:29:49;5.55;;;1.33;;
53293;SDS011;39181;53.440;5.644;2023-07-13T08:32:15;4.15;;;1.08;;
53293;SDS011;39181;53.440;5.644;2023-07-13T08:34:42;7.15;;;1.20;;
53293;SDS011;39181;53.440;5.644;2023-07-13T08:37:09;5.93;;;1.40;;
53293;SDS011;39181;53.440;5.644;2023-07-13T08:39:35;5.85;;;0.90;;
53293;SDS011;39181;53.440;5.644;2023-07-13T08:42:14;5.43;;;1.50;;
53293;SDS011;39181;53.440;5.644;2023-07-13T08:47:59;8.95;;;1.00;;
53293;SDS011;39181;53.440;5.644;2023-07-13T08:50:31;4.50;;;0.75;;
53293;SDS011;39181;53.440;5.644;2023-07-13T08:53:14;3.25;;;0.80;;
53293;SDS011;39181;53.440;5.644;2023-07-13T08:55:41;3.65;;;0.80;;
53293;SDS011;39181;53.440;5.644;2023-07-13T08:58:11;4.03;;;0.80;;
53293;SDS011;39181;53.440;5.644;2023-07-13T09:03:30;2.83;;;0.70;;
53293;SDS011;39181;53.440;5.644;2023-07-13T09:06:02;3.65;;;1.08;;
53293;SDS011;39181;53.440;5.644;2023-07-13T09:14:03;6.55;;;0.88;;
53293;SDS011;39181;53.440;5.644;2023-07-13T09:16:42;3.78;;;0.88;;
53293;SDS011;39181;53.440;5.644;2023-07-13T09:19:11;8.65;;;1.15;;
53293;SDS011;39181;53.440;5.644;2023-07-13T09:21:44;8.63;;;1.30;;
53293;SDS011;39181;53.440;5.644;2023-07-13T09:24:30;6.32;;;1.17;;
53293;SDS011;39181;53.440;5.644;2023-07-13T09:27:00;5.70;;;1.00;;
53293;SDS011;39181;53.440;5.644;2023-07-13T09:29:30;6.35;;;1.30;;
53293;SDS011;39181;53.440;5.644;2023-07-13T09:32:01;5.88;;;1.10;;
53293;SDS011;39181;53.440;5.644;2023-07-13T09:34:29;5.10;;;0.80;;
53293;SDS011;39181;53.440;5.644;2023-07-13T09:36:57;7.97;;;1.58;;
53293;SDS011;39181;53.440;5.644;2023-07-13T09:39:27;4.07;;;0.75;;
53293;SDS011;39181;53.440;5.644;2023-07-13T09:42:07;3.67;;;0.95;;
53293;SDS011;39181;53.440;5.644;2023-07-13T09:44:50;8.40;;;0.90;;
53293;SDS011;39181;53.440;5.644;2023-07-13T09:47:22;5.68;;;0.88;;
53293;SDS011;39181;53.440;5.644;2023-07-13T09:50:14;4.65;;;1.45;;
53293;SDS011;39181;53.440;5.644;2023-07-13T09:57:57;3.30;;;0.77;;
53293;SDS011;39181;53.440;5.644;2023-07-13T10:00:28;4.05;;;1.10;;
53293;SDS011;39181;53.440;5.644;2023-07-13T10:02:59;3.83;;;0.90;;
53293;SDS011;39181;53.440;5.644;2023-07-13T10:05:28;3.53;;;0.90;;
53293;SDS011;39181;53.440;5.644;2023-07-13T10:08:03;5.38;;;0.95;;
53293;SDS011;39181;53.440;5.644;2023-07-13T10:10:28;4.43;;;1.00;;
53293;SDS011;39181;53.440;5.644;2023-07-13T10:12:55;1.85;;;0.90;;
53293;SDS011;39181;53.440;5.644;2023-07-13T10:15:24;5.25;;;1.30;;
53293;SDS011;39181;53.440;5.644;2023-07-13T10:17:50;4.40;;;0.95;;
53293;SDS011;39181;53.440;5.644;2023-07-13T10:20:17;6.13;;;1.15;;
53293;SDS011;39181;53.440;5.644;2023-07-13T10:22:49;4.50;;;1.15;;
53293;SDS011;39181;53.440;5.644;2023-07-13T10:28:04;12.30;;;1.38;;
53293;SDS011;39181;53.440;5.644;2023-07-13T10:30:40;3.40;;;0.90;;
53293;SDS011;39181;53.440;5.644;2023-07-13T10:33:12;4.57;;;1.02;;
53293;SDS011;39181;53.440;5.644;2023-07-13T10:35:39;4.60;;;1.35;;
53293;SDS011;39181;53.440;5.644;2023-07-13T10:38:11;8.18;;;1.38;;
53293;SDS011;39181;53.440;5.644;2023-07-13T10:40:57;6.38;;;1.20;;
53293;SDS011;39181;53.440;5.644;2023-07-13T10:43:27;14.27;;;1.77;;
53293;SDS011;39181;53.440;5.644;2023-07-13T10:46:05;6.60;;;1.33;;
53293;SDS011;39181;53.440;5.644;2023-07-13T10:48:33;3.10;;;1.00;;
53293;SDS011;39181;53.440;5.644;2023-07-13T10:51:01;5.63;;;1.50;;
53293;SDS011;39181;53.440;5.644;2023-07-13T10:53:31;7.22;;;1.30;;
53293;SDS011;39181;53.440;5.644;2023-07-13T10:56:02;8.68;;;1.40;;
53293;SDS011;39181;53.440;5.644;2023-07-13T10:58:44;11.65;;;1.50;;
53293;SDS011;39181;53.440;5.644;2023-07-13T11:01:15;6.13;;;1.20;;
53293;SDS011;39181;53.440;5.644;2023-07-13T11:18:47;6.90;;;1.65;;
53293;SDS011;39181;53.440;5.644;2023-07-13T11:21:16;9.38;;;1.80;;
53293;SDS011;39181;53.440;5.644;2023-07-13T11:23:43;6.88;;;1.85;;
53293;SDS011;39181;53.440;5.644;2023-07-13T11:31:43;9.65;;;1.73;;
53293;SDS011;39181;53.440;5.644;2023-07-13T11:34:16;4.32;;;1.52;;
53293;SDS011;39181;53.440;5.644;2023-07-13T11:37:00;6.72;;;1.35;;
53293;SDS011;39181;53.440;5.644;2023-07-13T11:39:28;7.03;;;1.33;;
53293;SDS011;39181;53.440;5.644;2023-07-13T11:42:00;7.85;;;1.92;;
53293;SDS011;39181;53.440;5.644;2023-07-13T11:44:41;9.40;;;1.75;;
53293;SDS011;39181;53.440;5.644;2023-07-13T11:47:18;7.07;;;1.80;;
53293;SDS011;39181;53.440;5.644;2023-07-13T11:49:50;10.15;;;2.20;;
53293;SDS011;39181;53.440;5.644;2023-07-13T11:52:31;12.27;;;1.90;;
53293;SDS011;39181;53.440;5.644;2023-07-13T11:55:00;10.07;;;2.03;;
53293;SDS011;39181;53.440;5.644;2023-07-13T11:57:28;9.02;;;1.80;;
53293;SDS011;39181;53.440;5.644;2023-07-13T11:59:56;9.75;;;2.00;;
53293;SDS011;39181;53.440;5.644;2023-07-13T12:02:26;8.27;;;1.60;;
53293;SDS011;39181;53.440;5.644;2023-07-13T12:04:56;10.63;;;2.38;;
53293;SDS011;39181;53.440;5.644;2023-07-13T12:07:23;9.65;;;2.25;;
53293;SDS011;39181;53.440;5.644;2023-07-13T12:09:49;13.20;;;2.00;;
53293;SDS011;39181;53.440;5.644;2023-07-13T12:12:19;4.13;;;1.48;;
53293;SDS011;39181;53.440;5.644;2023-07-13T12:14:46;9.35;;;2.42;;
53293;SDS011;39181;53.440;5.644;2023-07-13T12:17:16;5.72;;;1.88;;
53293;SDS011;39181;53.440;5.644;2023-07-13T12:19:47;8.48;;;1.85;;
53293;SDS011;39181;53.440;5.644;2023-07-13T12:22:15;7.57;;;1.63;;
53293;SDS011;39181;53.440;5.644;2023-07-13T12:24:43;10.77;;;1.95;;
53293;SDS011;39181;53.440;5.644;2023-07-13T12:27:14;5.60;;;1.55;;
53293;SDS011;39181;53.440;5.644;2023-07-13T12:30:22;7.65;;;1.73;;
53293;SDS011;39181;53.440;5.644;2023-07-13T12:32:56;11.65;;;2.33;;
53293;SDS011;39181;53.440;5.644;2023-07-13T12:35:24;9.63;;;2.15;;
53293;SDS011;39181;53.440;5.644;2023-07-13T12:37:54;5.07;;;1.60;;
53293;SDS011;39181;53.440;5.644;2023-07-13T12:40:25;8.43;;;1.70;;
53293;SDS011;39181;53.440;5.644;2023-07-13T12:42:56;8.95;;;1.45;;
53293;SDS011;39181;53.440;5.644;2023-07-13T12:45:25;7.38;;;1.80;;
53293;SDS011;39181;53.440;5.644;2023-07-13T12:48:03;7.35;;;1.52;;
53293;SDS011;39181;53.440;5.644;2023-07-13T12:50:34;4.80;;;1.88;;
53293;SDS011;39181;53.440;5.644;2023-07-13T12:55:32;6.55;;;1.50;;
53293;SDS011;39181;53.440;5.644;2023-07-13T13:01:09;9.73;;;1.90;;
53293;SDS011;39181;53.440;5.644;2023-07-13T13:03:44;5.75;;;1.90;;
53293;SDS011;39181;53.440;5.644;2023-07-13T13:08:44;10.50;;;2.38;;
53293;SDS011;39181;53.440;5.644;2023-07-13T13:11:13;6.82;;;1.98;;
53293;SDS011;39181;53.440;5.644;2023-07-13T13:13:43;12.55;;;2.45;;
53293;SDS011;39181;53.440;5.644;2023-07-13T13:16:12;7.63;;;1.70;;
53293;SDS011;39181;53.440;5.644;2023-07-13T13:18:54;8.85;;;1.85;;
53293;SDS011;39181;53.440;5.644;2023-07-13T13:21:25;10.82;;;1.92;;
53293;SDS011;39181;53.440;5.644;2023-07-13T13:23:51;8.80;;;1.75;;
53293;SDS011;39181;53.440;5.644;2023-07-13T13:26:18;9.98;;;1.77;;
53293;SDS011;39181;53.440;5.644;2023-07-13T13:28:45;8.20;;;1.80;;
53293;SDS011;39181;53.440;5.644;2023-07-13T13:31:13;7.13;;;1.65;;
53293;SDS011;39181;53.440;5.644;2023-07-13T13:33:40;4.57;;;1.40;;
53293;SDS011;39181;53.440;5.644;2023-07-13T13:36:17;6.25;;;1.77;;
53293;SDS011;39181;53.440;5.644;2023-07-13T13:38:44;6.30;;;1.85;;
53293;SDS011;39181;53.440;5.644;2023-07-13T13:41:12;6.38;;;1.60;;
53293;SDS011;39181;53.440;5.644;2023-07-13T13:43:39;5.18;;;1.65;;
53293;SDS011;39181;53.440;5.644;2023-07-13T13:46:15;7.35;;;2.22;;
53293;SDS011;39181;53.440;5.644;2023-07-13T13:48:47;6.90;;;1.58;;
53293;SDS011;39181;53.440;5.644;2023-07-13T13:51:20;6.13;;;1.98;;
53293;SDS011;39181;53.440;5.644;2023-07-13T13:53:48;10.18;;;1.90;;
53293;SDS011;39181;53.440;5.644;2023-07-13T13:56:14;11.15;;;2.00;;
53293;SDS011;39181;53.440;5.644;2023-07-13T13:58:42;7.60;;;1.73;;
53293;SDS011;39181;53.440;5.644;2023-07-13T14:01:16;7.38;;;1.75;;
53293;SDS011;39181;53.440;5.644;2023-07-13T14:03:47;6.13;;;2.05;;
53293;SDS011;39181;53.440;5.644;2023-07-13T14:06:16;10.88;;;2.00;;
53293;SDS011;39181;53.440;5.644;2023-07-13T14:08:44;8.55;;;2.20;;
53293;SDS011;39181;53.440;5.644;2023-07-13T14:11:15;5.45;;;1.63;;
53293;SDS011;39181;53.440;5.644;2023-07-13T14:13:45;6.32;;;1.58;;
53293;SDS011;39181;53.440;5.644;2023-07-13T14:16:17;10.40;;;1.55;;
53293;SDS011;39181;53.440;5.644;2023-07-13T14:18:45;6.82;;;1.60;;
53293;SDS011;39181;53.440;5.644;2023-07-13T14:21:15;7.80;;;2.17;;
53293;SDS011;39181;53.440;5.644;2023-07-13T14:23:43;10.45;;;2.53;;
53293;SDS011;39181;53.440;5.644;2023-07-13T14:26:10;7.18;;;2.30;;
53293;SDS011;39181;53.440;5.644;2023-07-13T14:28:38;6.88;;;1.50;;
53293;SDS011;39181;53.440;5.644;2023-07-13T14:31:08;7.50;;;2.15;;
53293;SDS011;39181;53.440;5.644;2023-07-13T14:33:34;8.05;;;2.03;;
53293;SDS011;39181;53.440;5.644;2023-07-13T14:36:00;6.78;;;1.75;;
53293;SDS011;39181;53.440;5.644;2023-07-13T14:38:26;6.97;;;1.65;;
53293;SDS011;39181;53.440;5.644;2023-07-13T14:40:52;8.98;;;1.80;;
53293;SDS011;39181;53.440;5.644;2023-07-13T14:43:17;4.68;;;1.55;;
53293;SDS011;39181;53.440;5.644;2023-07-13T14:45:46;4.18;;;1.60;;
53293;SDS011;39181;53.440;5.644;2023-07-13T14:48:15;5.60;;;1.60;;
53293;SDS011;39181;53.440;5.644;2023-07-13T14:50:44;6.78;;;1.95;;
53293;SDS011;39181;53.440;5.644;2023-07-13T14:53:11;8.95;;;1.73;;
53293;SDS011;39181;53.440;5.644;2023-07-13T14:55:38;7.05;;;1.88;;
53293;SDS011;39181;53.440;5.644;2023-07-13T14:58:04;5.90;;;1.38;;
53293;SDS011;39181;53.440;5.644;2023-07-13T15:00:30;6.32;;;1.40;;
53293;SDS011;39181;53.440;5.644;2023-07-13T15:02:57;7.55;;;1.60;;
53293;SDS011;39181;53.440;5.644;2023-07-13T15:05:28;4.80;;;1.70;;
53293;SDS011;39181;53.440;5.644;2023-07-13T15:07:57;6.63;;;2.05;;
53293;SDS011;39181;53.440;5.644;2023-07-13T15:10:26;8.43;;;1.58;;
53293;SDS011;39181;53.440;5.644;2023-07-13T15:13:00;6.72;;;1.45;;
53293;SDS011;39181;53.440;5.644;2023-07-13T15:15:38;6.75;;;1.60;;
53293;SDS011;39181;53.440;5.644;2023-07-13T15:18:06;6.13;;;1.67;;
53293;SDS011;39181;53.440;5.644;2023-07-13T15:20:36;11.02;;;1.88;;
53293;SDS011;39181;53.440;5.644;2023-07-13T15:23:01;6.32;;;1.55;;
53293;SDS011;39181;53.440;5.644;2023-07-13T15:25:28;9.73;;;1.77;;
53293;SDS011;39181;53.440;5.644;2023-07-13T15:27:56;7.68;;;1.67;;
53293;SDS011;39181;53.440;5.644;2023-07-13T15:30:23;4.65;;;1.42;;
53293;SDS011;39181;53.440;5.644;2023-07-13T15:32:52;9.30;;;2.03;;
53293;SDS011;39181;53.440;5.644;2023-07-13T15:35:21;8.20;;;1.80;;
53293;SDS011;39181;53.440;5.644;2023-07-13T15:37:49;8.43;;;1.27;;
53293;SDS011;39181;53.440;5.644;2023-07-13T15:40:16;7.57;;;2.00;;
53293;SDS011;39181;53.440;5.644;2023-07-13T15:42:42;11.35;;;2.25;;
53293;SDS011;39181;53.440;5.644;2023-07-13T15:45:19;9.88;;;2.10;;